createdAt,value
2023-03-29T00:00:07.225Z,14.9
2023-03-29T00:05:07.217Z,14.5
2023-03-29T00:10:06.436Z,20.2
2023-03-29T00:15:06.591Z,15.5
2023-03-29T00:20:06.673Z,14.2
2023-03-29T00:25:06.945Z,14.3
2023-03-29T00:30:06.910Z,12.8
2023-03-29T00:35:06.945Z,13.8
2023-03-29T00:40:07.195Z,15.1
2023-03-29T00:45:07.220Z,15.3
2023-03-29T00:50:06.406Z,13.4
2023-03-29T00:55:06.333Z,19.6
2023-03-29T01:00:06.706Z,20.1
2023-03-29T01:05:06.828Z,14.8
2023-03-29T01:10:06.299Z,15.5
2023-03-29T01:15:06.298Z,10.3
2023-03-29T01:20:06.449Z,9.7
2023-03-29T01:25:06.928Z,5.7
2023-03-29T01:30:07.119Z,5.2
2023-03-29T01:35:06.540Z,7.4
2023-03-29T01:40:07.121Z,4.1
2023-03-29T01:45:07.166Z,3.6
2023-03-29T01:50:07.192Z,6.2
2023-03-29T01:55:07.161Z,4.5
2023-03-29T02:00:06.936Z,4
2023-03-29T02:05:06.779Z,5.4
2023-03-29T02:10:07.162Z,5
2023-03-29T02:15:06.222Z,5.7
2023-03-29T02:20:06.368Z,6.2
2023-03-29T02:25:06.399Z,4.9
2023-03-29T02:30:06.513Z,4.2
2023-03-29T02:35:06.314Z,5.3
2023-03-29T02:40:06.714Z,4.1
2023-03-29T02:45:06.917Z,3.8
2023-03-29T02:50:06.388Z,4.5
2023-03-29T02:55:07.060Z,3.8
2023-03-29T03:00:07.356Z,3.6
2023-03-29T03:05:06.703Z,3.7
2023-03-29T03:10:06.512Z,3.6
2023-03-29T03:15:06.491Z,2.8
2023-03-29T03:20:06.657Z,4.8
2023-03-29T03:25:06.708Z,2.8
2023-03-29T03:30:06.907Z,4.4
2023-03-29T03:35:07.027Z,5.1
2023-03-29T03:40:07.108Z,3
2023-03-29T03:45:07.150Z,3.7
2023-03-29T03:50:06.929Z,4
2023-03-29T03:55:07.076Z,5.4
2023-03-29T04:00:06.475Z,3.7
2023-03-29T04:05:06.673Z,6
2023-03-29T04:10:07.026Z,5.7
2023-03-29T04:15:07.125Z,5
2023-03-29T04:20:06.388Z,4.7
2023-03-29T04:25:06.699Z,7.1
2023-03-29T04:30:06.911Z,5.6
2023-03-29T04:35:07.130Z,6.6
2023-03-29T04:40:06.307Z,7.4
2023-03-29T04:45:06.486Z,7
2023-03-29T04:50:06.583Z,8.7
2023-03-29T04:55:06.651Z,4.6
2023-03-29T05:00:06.856Z,2.7
2023-03-29T05:05:06.732Z,2.1
2023-03-29T05:10:06.688Z,3.4
2023-03-29T05:15:06.955Z,2.6
2023-03-29T05:20:07.122Z,2.5
2023-03-29T05:25:06.363Z,3.1
2023-03-29T05:30:06.423Z,2.4
2023-03-29T05:35:06.483Z,3.3
2023-03-29T05:40:06.714Z,2.7
2023-03-29T05:45:06.825Z,3.4
2023-03-29T05:50:07.090Z,2.1
2023-03-29T05:55:07.173Z,3.2
2023-03-29T06:05:06.417Z,3.8
2023-03-29T06:10:06.729Z,4
2023-03-29T06:15:06.791Z,3.4
2023-03-29T06:20:06.443Z,5.1
2023-03-29T06:25:06.923Z,2.6
2023-03-29T06:30:06.943Z,3
2023-03-29T06:35:07.133Z,2.7
2023-03-29T06:40:06.349Z,3.7
2023-03-29T06:45:06.536Z,3.8
2023-03-29T06:50:06.794Z,3.7
2023-03-29T06:55:06.937Z,2.8
2023-03-29T07:00:07.172Z,2.3
2023-03-29T07:05:06.927Z,3.4
2023-03-29T07:10:07.130Z,2.9
2023-03-29T07:15:07.036Z,2.6
2023-03-29T07:20:06.272Z,2.3
2023-03-29T07:25:06.473Z,3
2023-03-29T07:30:06.774Z,3.1
2023-03-29T07:35:06.754Z,3.7
2023-03-29T07:40:07.080Z,3.5
2023-03-29T07:45:07.135Z,2.6
2023-03-29T07:50:07.114Z,3.9
2023-03-29T07:55:07.057Z,2.5
2023-03-29T08:00:06.429Z,2.5
2023-03-29T08:05:06.548Z,3.8
2023-03-29T08:10:06.458Z,4.1
2023-03-29T08:15:06.628Z,3.1
2023-03-29T08:20:06.630Z,3.1
2023-03-29T08:25:06.905Z,4.6
2023-03-29T08:30:07.152Z,3.7
2023-03-29T08:35:06.831Z,3.3
2023-03-29T08:40:07.117Z,3.7
2023-03-29T08:45:06.262Z,3.5
2023-03-29T08:50:06.696Z,3.3
2023-03-29T08:55:06.591Z,2.8
2023-03-29T09:00:06.718Z,4.1
2023-03-29T09:05:06.822Z,2.9
2023-03-29T09:10:07.039Z,3.8
2023-03-29T09:15:06.672Z,2.8
2023-03-29T09:20:06.812Z,3.9
2023-03-29T09:25:07.142Z,4.5
2023-03-29T09:30:06.575Z,4.3
2023-03-29T09:35:06.864Z,5.1
2023-03-29T09:40:06.285Z,3.7
2023-03-29T09:45:07.111Z,3
2023-03-29T09:50:06.533Z,4.2
2023-03-29T09:55:07.215Z,4
2023-03-29T10:00:06.362Z,5
2023-03-29T10:05:06.633Z,3.1
2023-03-29T10:10:06.906Z,5.6
2023-03-29T10:15:06.946Z,4.9
2023-03-29T10:20:07.250Z,4.2
2023-03-29T10:25:06.351Z,4.8
2023-03-29T10:30:06.622Z,4.1
2023-03-29T10:35:06.755Z,4.6
2023-03-29T10:40:06.672Z,5
2023-03-29T10:45:06.838Z,3.8
2023-03-29T10:50:06.296Z,4
2023-03-29T10:55:06.412Z,5.4
2023-03-29T11:00:07.113Z,2.7
2023-03-29T11:05:06.543Z,4.2
2023-03-29T11:10:07.111Z,3.9
2023-03-29T11:15:06.244Z,4.5
2023-03-29T11:20:07.006Z,5.3
2023-03-29T11:25:06.974Z,6.4
2023-03-29T11:30:07.078Z,5.5
2023-03-29T11:35:06.375Z,4.1
2023-03-29T11:40:07.080Z,6.7
2023-03-29T11:45:06.627Z,6
2023-03-29T11:50:07.036Z,4.8
2023-03-29T11:55:07.151Z,5.9
2023-03-29T12:00:07.202Z,3.6
2023-03-29T12:05:06.706Z,4.3
2023-03-29T12:10:06.370Z,5.3
2023-03-29T12:15:06.325Z,4.6
2023-03-29T12:20:06.338Z,4
2023-03-29T12:25:06.959Z,4.6
2023-03-29T12:30:07.056Z,3.8
2023-03-29T12:35:06.517Z,3.8
2023-03-29T12:40:06.795Z,6
2023-03-29T12:45:06.447Z,4.8
2023-03-29T12:50:06.480Z,5.1
2023-03-29T12:55:06.748Z,5.2
2023-03-29T13:00:06.992Z,4.5
2023-03-29T13:05:06.462Z,5.2
2023-03-29T13:10:06.772Z,4.7
2023-03-29T13:15:07.108Z,5.2
2023-03-29T13:20:07.124Z,3.6
2023-03-29T13:25:07.055Z,5.5
2023-03-29T13:30:07.049Z,3.5
2023-03-29T13:35:07.017Z,5.3
2023-03-29T13:40:06.880Z,5.2
2023-03-29T13:45:07.086Z,4.9
2023-03-29T13:50:06.300Z,5.5
2023-03-29T13:55:06.885Z,5.1
2023-03-29T14:00:07.289Z,4.7
2023-03-29T14:05:06.746Z,5.2
2023-03-29T14:10:06.392Z,4.8
2023-03-29T14:15:06.329Z,7.7
2023-03-29T14:20:07.011Z,9.7
2023-03-29T14:25:07.240Z,10.7
2023-03-29T14:30:07.147Z,10.8
2023-03-29T14:35:06.996Z,22
2023-03-29T14:40:07.008Z,23.8
2023-03-29T14:45:06.980Z,23.6
2023-03-29T14:50:07.131Z,40.6
2023-03-29T14:55:07.166Z,32
2023-03-29T15:00:06.487Z,34.9
2023-03-29T15:05:06.848Z,70.7
2023-03-29T15:10:07.128Z,55.9
2023-03-29T15:15:06.278Z,59.8
2023-03-29T15:20:06.305Z,42.1
2023-03-29T15:25:06.570Z,43.9
2023-03-29T15:30:07.070Z,47
2023-03-29T15:35:07.180Z,35.2
2023-03-29T15:40:06.843Z,24.1
2023-03-29T15:45:06.782Z,18.8
2023-03-29T15:50:06.808Z,22.8
2023-03-29T15:55:06.979Z,14.6
2023-03-29T16:00:07.313Z,8.4
2023-03-29T16:05:07.072Z,12.3
2023-03-29T16:10:06.909Z,13.1
2023-03-29T16:15:07.056Z,9.3
2023-03-29T16:20:07.239Z,5.6
2023-03-29T16:25:06.999Z,4.8
2023-03-29T16:30:07.083Z,5.8
2023-03-29T16:35:06.336Z,10.1
2023-03-29T16:40:06.583Z,9.2
2023-03-29T16:45:06.555Z,10.6
2023-03-29T16:50:06.746Z,15.3
2023-03-29T16:55:06.902Z,18.3
2023-03-29T17:00:07.168Z,16.8
2023-03-29T17:05:07.004Z,15.6
2023-03-29T17:10:07.167Z,20
2023-03-29T17:15:06.414Z,23.4
2023-03-29T17:20:06.605Z,26
2023-03-29T17:25:06.865Z,25.2
2023-03-29T17:30:07.025Z,20.1
2023-03-29T17:35:07.081Z,24.6
2023-03-29T17:40:07.050Z,39.6
2023-03-29T17:45:06.276Z,22.4
2023-03-29T17:50:06.404Z,19.3
2023-03-29T17:55:06.521Z,17.7
2023-03-29T18:00:06.779Z,18.9
2023-03-29T18:05:06.506Z,15.7
2023-03-29T18:10:06.782Z,24.6
2023-03-29T18:15:06.981Z,27.1
2023-03-29T18:20:06.970Z,30
2023-03-29T18:25:07.178Z,26.1
2023-03-29T18:30:06.382Z,46.1
2023-03-29T18:35:06.605Z,60.6
2023-03-29T18:40:06.674Z,67.8
2023-03-29T18:45:06.863Z,55.2
2023-03-29T18:50:06.921Z,54.8
2023-03-29T18:55:07.145Z,49.2
2023-03-29T19:00:06.371Z,53.9
2023-03-29T19:05:07.219Z,53.3
2023-03-29T19:10:06.908Z,60.8
2023-03-29T19:15:06.954Z,75.5
2023-03-29T19:20:07.143Z,68.4
2023-03-29T19:25:06.278Z,30.2
2023-03-29T19:30:06.325Z,26
2023-03-29T19:35:06.302Z,18.5
2023-03-29T19:40:06.367Z,23.7
2023-03-29T19:45:06.529Z,21.9
2023-03-29T19:50:07.003Z,24
2023-03-29T19:55:06.669Z,23.7
2023-03-29T20:00:06.828Z,40
2023-03-29T20:05:06.235Z,47.2
2023-03-29T20:10:06.486Z,43.6
2023-03-29T20:15:06.641Z,37.6
2023-03-29T20:20:06.745Z,39.6
2023-03-29T20:25:06.848Z,34.8
2023-03-29T20:30:06.898Z,35.1
2023-03-29T20:35:07.143Z,36.1
2023-03-29T20:40:06.361Z,33.4
2023-03-29T20:45:06.424Z,42.4
2023-03-29T20:50:06.347Z,39.1
2023-03-29T20:55:06.438Z,51.4
2023-03-29T21:00:06.667Z,30.6
2023-03-29T21:05:06.323Z,32.9
2023-03-29T21:10:06.622Z,19.5
2023-03-29T21:15:06.646Z,24.1
2023-03-29T21:20:06.762Z,27.5
2023-03-29T21:25:06.294Z,14.7
2023-03-29T21:30:06.316Z,22.2
2023-03-29T21:35:06.390Z,19.1
2023-03-29T21:40:06.590Z,29
2023-03-29T21:45:06.910Z,25.7
2023-03-29T21:50:07.031Z,29.5
2023-03-29T21:55:07.090Z,23.7
2023-03-29T22:00:07.304Z,30
2023-03-29T22:05:06.303Z,28.6
2023-03-29T22:10:06.681Z,24.2
2023-03-29T22:15:06.834Z,19.5
2023-03-29T22:20:07.071Z,16.5
2023-03-29T22:25:07.108Z,21.9
2023-03-29T22:30:06.774Z,19.6
2023-03-29T22:35:06.883Z,23.4
2023-03-29T22:40:07.147Z,29
2023-03-29T22:45:07.166Z,27.7
2023-03-29T22:50:06.267Z,43.5
2023-03-29T22:55:06.435Z,57.1
2023-03-29T23:00:06.730Z,39.4
2023-03-29T23:05:07.563Z,39.1
2023-03-29T23:10:06.734Z,38.9
2023-03-29T23:15:07.029Z,23.7
2023-03-29T23:20:07.239Z,20.4
2023-03-29T23:25:06.261Z,21.3
2023-03-29T23:30:06.360Z,20.6
2023-03-29T23:35:06.448Z,20.9
2023-03-29T23:40:06.938Z,21.1
2023-03-29T23:45:06.741Z,18
2023-03-29T23:50:07.309Z,17.2
2023-03-29T23:55:06.597Z,18
